United B772 at Washington on Mar 19th 2013, one passenger injured in flight

Last Update: March 20, 2013 / 18:19:34 GMT/Zulu time

Bookmark this article
Incident Facts

Date of incident
Mar 19, 2013

Classification
Accident

Airline
United

Flight number
UA-977

Aircraft Registration
N787UA

Aircraft Type
Boeing 777-200

ICAO Type Designator
B772

A United Boeing 777-200, registration N787UA performing flight UA-977 from Dubai (United Arab Emirates) to Washington Dulles,DC (USA), landed on Dulles International Airport's runway 19L at 07:15L (11:15Z), the crew maintained routine communication.

The FAA reported however, that one passenger received an injury, and provided the time of touchdown as time stamp.



Metars:
KIAD 191252Z VRB04KT 2SM BR BKN006 BKN038 OVC120 02/01 A2982 RMK AO2 SFC VIS 6 SLP099 BINOVC W T00220011
KIAD 191239Z 36005KT 1/2SM BR BKN006 OVC038 02/01 A2982 RMK AO2 SFC VIS 4
KIAD 191243Z 34004KT 2SM BR BKN006 BKN038 OVC120 02/01 A2982 RMK AO2 SFC VIS 5
KIAD 191152Z 31007KT 1/2SM BR BKN002 OVC012 02/01 A2983 RMK AO2 SFC VIS 2 1/2 SLP103 70038 T00170006 10017 20011 51019
KIAD 191148Z VRB05KT 1/2SM BR BKN002 OVC012 01/01 A2983 RMK AO2 SFC VIS 2 1/2
KIAD 191105Z 23005KT 2SM BR OVC002 01/01 A2979 RMK AO2
KIAD 191052Z VRB05KT 1 1/2SM BR OVC002 01/01 A2979 RMK AO2 SLP089 T00110006
KIAD 191040Z VRB04KT 1SM R01R/5000VP6000FT BR BKN002 OVC007 01/01 A2978 RMK AO2
KIAD 191011Z 00000KT 1/4SM R01R/2400V5500FT FG VV002 01/01 A2977 RMK AO2
KIAD 190952Z 24005KT 1/16SM R01R/2000V2400FT FG VV000 01/01 A2977 RMK AO2 SLP084 T00110011
KIAD 190852Z 24005KT 1/16SM R01R/1800V2000FT FG VV000 01/01 A2978 RMK AO2 SLP087 T00110011 56022
KIAD 190833Z VRB03KT 1/16SM R01R/2200V2400FT FG VV000 01/01 A2978 RMK AO2
KIAD 190814Z VRB04KT 1/8SM R01R/2400V2800FT FG VV002 01/01 A2979 RMK AO2
KIAD 190752Z VRB04KT 1/4SM R01R/2800V4000FT FG VV002 01/01 A2980 RMK AO2 SLP092 T00110011
KIAD 190657Z 26005KT 1/2SM R01R/5500VP6000FT FG OVC003 02/01 A2983 RMK AO2
KIAD 190652Z COR 26005KT 1/2SM R01R/6000FT BR OVC003 02/01 A2983 RMK AO2 SLP101 T00170011
Incident Facts

Date of incident
Mar 19, 2013

Classification
Accident

Airline
United

Flight number
UA-977

Aircraft Registration
N787UA

Aircraft Type
Boeing 777-200

ICAO Type Designator
B772

This article is published under license from Avherald.com. © of text by Avherald.com.
Article source

You can read 2 more free articles without a subscription.

Subscribe now and continue reading without any limits!

Are you a subscriber? Login
Subscribe

Read unlimited articles and receive our daily update briefing. Gain better insights into what is happening in commercial aviation safety.

Free newsletter

Want to know more and stay ahead? Get our free weekly newsletter and join 5603 existing subscribers.

By subscribing, you accept our terms and conditions and confirm that you've read our privacy policy.

Send tip

Support AeroInside by sending a small tip amount.

Related articles

Newest articles

Subscribe today

Are you researching aviation incidents? Get access to AeroInside Insights, unlimited read access and receive the daily newsletter.

Pick your plan and subscribe

Partner

Blockaviation logo

A new way to document and demonstrate airworthiness compliance and aircraft value. Find out more.

Virtual Speech logo

ELITE Simulation Solutions is a leading global provider of Flight Simulation Training Devices, IFR training software as well as flight controls and related services. Find out more.

Get updates

Never miss an article from AeroInside. Subscribe to our free weekly newsletter and join 5603 existing subscribers.

By subscribing, you accept our terms and conditions and that you've read our privacy policy.

AeroInside Blog
Popular aircraft
Airbus A320
Boeing 737-800
Boeing 737-800 MAX
Popular airlines
American Airlines
United
Delta
Air Canada
Lufthansa
British Airways